Time;durP1;ratioP1;P1;durP2;ratioP2;P2;SDS_P1;SDS_P2;PMS_P1;PMS_P2;Temp;Humidity;BMP_temperature;BMP_pressure;BME280_temperature;BME280_humidity;BME280_pressure;Samples;Min_cycle;Max_cycle;Signal;HPM_P1;HPM_P2
2023/04/29 00:00:14;;;;;;;;;;;;;;;;;;4980370;28;92502;-65
2023/04/29 00:02:40;;;;;;;;;;;;;;;;;;4978251;28;93384;-65
2023/04/29 00:05:05;;;;;;;;;;;;;;;;;;4974877;28;92735;-66
2023/04/29 00:07:35;;;;;;;;;;;;;;;;;;4983401;28;93592;-66
2023/04/29 00:10:00;;;;;;;;;;;;;;;;;;4977824;28;92642;-65
2023/04/29 00:12:26;;;;;;;;;;;;;;;;;;4980981;28;93548;-68
2023/04/29 00:14:52;;;;;;;;;;;;;;;;;;4974442;28;93896;-65
2023/04/29 00:17:17;;;;;;;;;;;;;;;;;;4984045;28;93745;-66
2023/04/29 00:19:43;;;;;;;;;;;;;;;;;;4980622;28;94419;-66
2023/04/29 00:22:08;;;;;;;;;;;;;;;;;;4983841;28;94033;-65
2023/04/29 00:24:33;;;;;;;;;;;;;;;;;;4979820;28;92155;-65
2023/04/29 00:26:58;;;;;;;;;;;;;;;;;;4983838;28;92839;-65
2023/04/29 00:29:23;;;;;;;;;;;;;;;;;;4982151;28;92771;-63
2023/04/29 00:31:49;;;;;;;;;;;;;;;;;;4982047;28;92738;-62
2023/04/29 00:34:14;;;;;;;;;;;;;;;;;;4983247;28;93822;-62
2023/04/29 00:36:39;;;;;;;;;;;;;;;;;;4980360;28;91954;-68
2023/04/29 00:39:04;;;;;;;;;;;;;;;;;;4972199;28;92709;-66
2023/04/29 00:41:30;;;;;;;;;;;;;;;;;;4980677;28;92195;-67
2023/04/29 00:43:56;;;;;;;;;;;;;;;;;;4980223;28;93269;-67
2023/04/29 00:46:21;;;;;;;;;;;;;;;;;;4984400;28;93376;-68
2023/04/29 00:48:46;;;;;;;;;;;;;;;;;;4990327;28;93726;-65
2023/04/29 00:51:12;;;;;;;;;;;;;;;;;;4984718;28;92980;-66
2023/04/29 00:53:38;;;;;;;;;;;;;;;;;;4980999;28;93620;-64
2023/04/29 00:56:03;;;;;;;;;;;;;;;;;;4983136;28;92200;-64
2023/04/29 00:58:32;;;;;;;;;;;;;;;;;;4980551;28;93498;-66
2023/04/29 01:01:00;;;;;;;;;;;;;;;;;;4980699;28;93167;-67
2023/04/29 01:03:27;;;;;;;;;;;;;;;;;;4981457;28;92788;-63
2023/04/29 01:05:57;;;;;;;;;;;;;;;;;;4982202;28;92742;-62
2023/04/29 01:08:33;;;;;;;;;;;;;;;;;;4980531;28;94346;-66
2023/04/29 01:10:58;;;;;;;;;;;;;;;;;;4985266;28;92308;-65
2023/04/29 01:13:33;;;;;;;;;;;;;;;;;;4979880;28;92727;-67
2023/04/29 01:16:03;;;;;;;;;;;;;;;;;;4979534;28;92567;-67
2023/04/29 01:18:42;;;;;;;;;;;;;;;;;;4983123;28;92491;-64
2023/04/29 01:21:08;;;;;;;;;;;;;;;;;;4983937;28;93772;-64
2023/04/29 01:23:33;;;;;;;;;;;;;;;;;;4981249;28;93086;-66
2023/04/29 01:25:58;;;;;;;;;;;;;;;;;;4980161;28;92503;-65
2023/04/29 01:28:36;;;;;;;;;;;;;;;;;;4977325;28;92622;-65
2023/04/29 01:31:10;;;;;;;;;;;;;;;;;;4977027;28;92233;-65
2023/04/29 01:33:53;;;;;;;;;;;;;;;;;;4982396;28;94114;-64
2023/04/29 01:36:51;;;;;;;;;;;;;;;;;;4975484;28;92340;-63
2023/04/29 01:39:35;;;;;;;;;;;;;;;;;;4961862;28;93459;-64
2023/04/29 01:42:00;;;;;;;;;;;;;;;;;;4982300;28;92631;-64
2023/04/29 01:44:27;;;;;;;;;;;;;;;;;;4981379;28;92686;-66
2023/04/29 01:46:52;;;;;;;;;;;;;;;;;;4981935;28;93067;-66
2023/04/29 01:49:36;;;;;;;;;;;;;;;;;;4979867;28;93015;-68
2023/04/29 01:52:02;;;;;;;;;;;;;;;;;;4981574;28;91518;-65
2023/04/29 01:54:27;;;;;;;;;;;;;;;;;;4980023;28;94119;-63
2023/04/29 01:56:52;;;;;;;;;;;;;;;;;;4978279;28;92780;-66
2023/04/29 01:59:18;;;;;;;;;;;;;;;;;;4978751;28;93664;-68
2023/04/29 02:01:43;;;;;;;;;;;;;;;;;;4982316;28;92816;-69
2023/04/29 02:04:08;;;;;;;;;;;;;;;;;;4974148;28;93061;-65
2023/04/29 02:06:33;;;;;;;;;;;;;;;;;;4983422;28;93166;-67
2023/04/29 02:08:58;;;;;;;;;;;;;;;;;;4978571;28;92720;-63
2023/04/29 02:11:24;;;;;;;;;;;;;;;;;;4978322;28;92286;-63
2023/04/29 02:13:49;;;;;;;;;;;;;;;;;;4981473;28;92625;-66
2023/04/29 02:16:15;;;;;;;;;;;;;;;;;;4981239;28;91912;-67
2023/04/29 02:18:40;;;;;;;;;;;;;;;;;;4986118;28;92758;-65
2023/04/29 02:21:06;;;;;;;;;;;;;;;;;;4978019;28;92754;-69
2023/04/29 02:23:31;;;;;;;;;;;;;;;;;;4981168;28;93756;-67
2023/04/29 02:25:56;;;;;;;;;;;;;;;;;;4982145;28;95792;-65
2023/04/29 02:28:24;;;;;;;;;;;;;;;;;;4980680;28;92705;-66
2023/04/29 02:30:50;;;;;;;;;;;;;;;;;;4980260;28;92217;-68
2023/04/29 02:33:16;;;;;;;;;;;;;;;;;;4983968;28;92630;-68
2023/04/29 02:35:41;;;;;;;;;;;;;;;;;;4978031;28;94908;-68
2023/04/29 02:38:06;;;;;;;;;;;;;;;;;;4981451;28;92307;-68
2023/04/29 02:40:31;;;;;;;;;;;;;;;;;;4979582;28;93622;-68
2023/04/29 02:42:57;;;;;;;;;;;;;;;;;;4976188;28;92340;-65
2023/04/29 02:45:22;;;;;;;;;;;;;;;;;;4978472;28;93069;-65
2023/04/29 02:47:47;;;;;;;;;;;;;;;;;;4972588;28;93249;-65
2023/04/29 02:50:12;;;;;;;;;;;;;;;;;;4977460;28;92234;-67
2023/04/29 02:52:40;;;;;;;;;;;;;;;;;;4983902;28;92667;-66
2023/04/29 02:55:06;;;;;;;;;;;;;;;;;;4973124;28;92540;-65
2023/04/29 02:57:31;;;;;;;;;;;;;;;;;;4977331;28;92449;-69
2023/04/29 02:59:56;;;;;;;;;;;;;;;;;;4982371;28;93327;-67
2023/04/29 03:02:22;;;;;;;;;;;;;;;;;;4983935;28;92238;-65
2023/04/29 03:04:47;;;;;;;;;;;;;;;;;;4980146;28;92604;-68
2023/04/29 03:07:12;;;;;;;;;;;;;;;;;;4979472;28;92765;-67
2023/04/29 03:09:38;;;;;;;;;;;;;;;;;;4976255;28;92241;-64
2023/04/29 03:12:03;;;;;;;;;;;;;;;;;;4980857;28;93613;-65
2023/04/29 03:14:28;;;;;;;;;;;;;;;;;;4978468;28;92594;-66
2023/04/29 03:16:55;;;;;;;;;;;;;;;;;;4980924;28;92323;-69
2023/04/29 03:19:20;;;;;;;;;;;;;;;;;;4979955;28;94021;-67
2023/04/29 03:21:45;;;;;;;;;;;;;;;;;;4981211;28;92700;-68
2023/04/29 03:24:10;;;;;;;;;;;;;;;;;;4981664;28;93855;-63
2023/04/29 03:26:35;;;;;;;;;;;;;;;;;;4977784;28;93414;-64
2023/04/29 03:29:01;;;;;;;;;;;;;;;;;;4978031;28;92606;-67
2023/04/29 03:31:26;;;;;;;;;;;;;;;;;;4979143;28;93871;-64
2023/04/29 03:33:52;;;;;;;;;;;;;;;;;;4976929;28;94283;-64
2023/04/29 03:36:17;;;;;;;;;;;;;;;;;;4979690;28;93190;-65
2023/04/29 03:38:43;;;;;;;;;;;;;;;;;;4982882;28;93716;-64
2023/04/29 03:41:08;;;;;;;;;;;;;;;;;;4976964;28;93736;-64
2023/04/29 03:43:33;;;;;;;;;;;;;;;;;;4979777;28;93061;-63
2023/04/29 03:45:59;;;;;;;;;;;;;;;;;;4975876;28;95253;-65
2023/04/29 03:48:24;;;;;;;;;;;;;;;;;;4978747;28;93677;-69
2023/04/29 03:50:49;;;;;;;;;;;;;;;;;;4974660;28;93450;-67
2023/04/29 03:53:16;;;;;;;;;;;;;;;;;;4982042;28;92840;-68
2023/04/29 03:55:41;;;;;;;;;;;;;;;;;;4977992;28;92450;-65
2023/04/29 03:58:07;;;;;;;;;;;;;;;;;;4972763;28;93647;-67
2023/04/29 04:00:32;;;;;;;;;;;;;;;;;;4983869;28;94042;-68
2023/04/29 04:02:58;;;;;;;;;;;;;;;;;;4979222;28;92287;-68
2023/04/29 04:05:24;;;;;;;;;;;;;;;;;;4976440;28;94143;-68
2023/04/29 04:07:52;;;;;;;;;;;;;;;;;;4979611;28;93386;-68
2023/04/29 04:10:18;;;;;;;;;;;;;;;;;;4979209;28;93489;-67
2023/04/29 04:12:44;;;;;;;;;;;;;;;;;;4978773;28;92762;-69
2023/04/29 04:15:09;;;;;;;;;;;;;;;;;;4981493;28;93119;-66
2023/04/29 04:17:34;;;;;;;;;;;;;;;;;;4978421;28;92505;-62
2023/04/29 04:20:00;;;;;;;;;;;;;;;;;;4981121;28;92459;-69
2023/04/29 04:22:25;;;;;;;;;;;;;;;;;;4979044;28;92836;-66
2023/04/29 04:24:50;;;;;;;;;;;;;;;;;;4977375;28;93532;-65
2023/04/29 04:27:15;;;;;;;;;;;;;;;;;;4980452;28;94193;-66
2023/04/29 04:29:41;;;;;;;;;;;;;;;;;;4977429;28;92959;-65
2023/04/29 04:32:06;;;;;;;;;;;;;;;;;;4974661;28;93361;-68
2023/04/29 04:34:31;;;;;;;;;;;;;;;;;;4975132;28;92852;-65
2023/04/29 04:36:56;;;;;;;;;;;;;;;;;;4976746;28;92949;-65
2023/04/29 04:39:21;;;;;;;;;;;;;;;;;;4974678;28;93276;-66
2023/04/29 04:41:47;;;;;;;;;;;;;;;;;;4973049;28;91997;-67
2023/04/29 04:44:13;;;;;;;;;;;;;;;;;;4975642;28;92226;-63
2023/04/29 04:46:38;;;;;;;;;;;;;;;;;;4975748;28;93801;-63
2023/04/29 04:49:03;;;;;;;;;;;;;;;;;;4978428;28;93838;-63
2023/04/29 04:51:28;;;;;;;;;;;;;;;;;;4978799;28;93902;-63
2023/04/29 04:53:54;;;;;;;;;;;;;;;;;;4981383;28;93174;-64
2023/04/29 04:56:20;;;;;;;;;;;;;;;;;;4970934;28;93654;-66
2023/04/29 04:58:45;;;;;;;;;;;;;;;;;;4977840;28;93516;-66
2023/04/29 05:01:10;;;;;;;;;;;;;;;;;;4979553;28;92844;-64
2023/04/29 05:03:36;;;;;;;;;;;;;;;;;;4979109;28;93690;-68
2023/04/29 05:06:01;;;;;;;;;;;;;;;;;;4974763;28;92266;-66
2023/04/29 05:08:26;;;;;;;;;;;;;;;;;;4977883;28;92554;-67
2023/04/29 05:10:52;;;;;;;;;;;;;;;;;;4976988;28;93041;-67
2023/04/29 05:13:17;;;;;;;;;;;;;;;;;;4973031;28;93584;-64
2023/04/29 05:15:43;;;;;;;;;;;;;;;;;;4977920;28;95994;-66
2023/04/29 05:18:09;;;;;;;;;;;;;;;;;;4972234;28;93970;-64
2023/04/29 05:20:34;;;;;;;;;;;;;;;;;;4976241;28;92994;-62
2023/04/29 05:22:59;;;;;;;;;;;;;;;;;;4978468;28;93637;-62
2023/04/29 05:25:24;;;;;;;;;;;;;;;;;;4971726;28;93651;-67
2023/04/29 05:27:50;;;;;;;;;;;;;;;;;;4974780;28;92276;-64
2023/04/29 05:30:16;;;;;;;;;;;;;;;;;;4977314;28;92607;-69
2023/04/29 05:32:41;;;;;;;;;;;;;;;;;;4977882;28;93270;-64
2023/04/29 05:35:07;;;;;;;;;;;;;;;;;;4972161;28;93161;-64
2023/04/29 05:37:32;;;;;;;;;;;;;;;;;;4978893;28;94251;-65
2023/04/29 05:39:57;;;;;;;;;;;;;;;;;;4975284;28;92714;-68
2023/04/29 05:42:23;;;;;;;;;;;;;;;;;;4977945;28;92472;-64
2023/04/29 05:44:48;;;;;;;;;;;;;;;;;;4973448;28;92673;-64
2023/04/29 05:47:14;;;;;;;;;;;;;;;;;;4974018;28;94592;-64
2023/04/29 05:49:39;;;;;;;;;;;;;;;;;;4972063;28;94075;-63
2023/04/29 05:52:05;;;;;;;;;;;;;;;;;;4973567;28;94512;-62
2023/04/29 05:54:31;;;;;;;;;;;;;;;;;;4976219;28;92422;-62
2023/04/29 05:56:56;;;;;;;;;;;;;;;;;;4974217;28;92797;-66
2023/04/29 05:59:21;;;;;;;;;;;;;;;;;;4975962;28;92971;-63
2023/04/29 06:01:46;;;;;;;;;;;;;;;;;;4973453;28;94145;-67
2023/04/29 06:04:12;;;;;;;;;;;;;;;;;;4975149;28;93445;-67
2023/04/29 06:06:37;;;;;;;;;;;;;;;;;;4977598;28;92770;-68
2023/04/29 06:09:03;;;;;;;;;;;;;;;;;;4973635;28;93610;-64
2023/04/29 06:11:28;;;;;;;;;;;;;;;;;;4975543;28;94923;-68
2023/04/29 06:13:53;;;;;;;;;;;;;;;;;;4970585;28;93356;-64
2023/04/29 06:16:19;;;;;;;;;;;;;;;;;;4973465;28;93276;-64
2023/04/29 06:18:44;;;;;;;;;;;;;;;;;;4975106;28;91490;-65
2023/04/29 06:21:10;;;;;;;;;;;;;;;;;;4973026;28;93062;-65
2023/04/29 06:23:35;;;;;;;;;;;;;;;;;;4973906;28;93021;-65
2023/04/29 06:26:00;;;;;;;;;;;;;;;;;;4979811;28;93942;-62
2023/04/29 06:28:25;;;;;;;;;;;;;;;;;;4978023;28;94247;-64
2023/04/29 06:30:51;;;;;;;;;;;;;;;;;;4980640;28;93884;-63
2023/04/29 06:33:16;;;;;;;;;;;;;;;;;;4976859;28;93124;-66
2023/04/29 06:35:41;;;;;;;;;;;;;;;;;;4977190;28;93721;-66
2023/04/29 06:38:07;;;;;;;;;;;;;;;;;;4978351;28;93238;-65
2023/04/29 06:40:32;;;;;;;;;;;;;;;;;;4974765;28;93648;-66
2023/04/29 06:42:58;;;;;;;;;;;;;;;;;;4980510;28;92306;-66
2023/04/29 06:45:24;;;;;;;;;;;;;;;;;;4974764;28;92920;-64
2023/04/29 06:47:49;;;;;;;;;;;;;;;;;;4977516;28;93633;-64
2023/04/29 06:50:15;;;;;;;;;;;;;;;;;;4967976;28;96810;-64
2023/04/29 06:52:40;;;;;;;;;;;;;;;;;;4978947;28;94471;-67
2023/04/29 06:55:06;;;;;;;;;;;;;;;;;;4971093;28;93035;-62
2023/04/29 06:57:31;;;;;;;;;;;;;;;;;;4974384;28;92849;-65
2023/04/29 06:59:56;;;;;;;;;;;;;;;;;;4973746;28;93652;-63
2023/04/29 07:02:21;;;;;;;;;;;;;;;;;;4980192;28;92959;-65
2023/04/29 07:04:48;;;;;;;;;;;;;;;;;;4970134;28;92752;-64
2023/04/29 07:07:14;;;;;;;;;;;;;;;;;;4980291;28;92762;-69
2023/04/29 07:09:39;;;;;;;;;;;;;;;;;;4978502;28;92655;-64
2023/04/29 07:12:04;;;;;;;;;;;;;;;;;;4975264;28;93035;-64
2023/04/29 07:14:30;;;;;;;;;;;;;;;;;;4975727;28;93957;-63
2023/04/29 07:16:56;;;;;;;;;;;;;;;;;;4981011;28;93852;-67
2023/04/29 07:19:21;;;;;;;;;;;;;;;;;;4974065;28;93627;-68
2023/04/29 07:21:46;;;;;;;;;;;;;;;;;;4977840;28;92837;-64
2023/04/29 07:24:11;;;;;;;;;;;;;;;;;;4971845;28;92284;-65
2023/04/29 07:26:37;;;;;;;;;;;;;;;;;;4974939;28;92649;-68
2023/04/29 07:29:02;;;;;;;;;;;;;;;;;;4973792;28;93230;-63
2023/04/29 07:31:28;;;;;;;;;;;;;;;;;;4976877;28;93006;-64
2023/04/29 07:33:54;;;;;;;;;;;;;;;;;;4973554;28;92665;-63
2023/04/29 07:36:19;;;;;;;;;;;;;;;;;;4974803;28;93731;-64
2023/04/29 07:38:44;;;;;;;;;;;;;;;;;;4985357;28;93381;-63
2023/04/29 07:41:09;;;;;;;;;;;;;;;;;;4975896;28;93329;-66
2023/04/29 07:43:35;;;;;;;;;;;;;;;;;;4982583;28;92240;-64
2023/04/29 07:46:00;;;;;;;;;;;;;;;;;;4981113;28;92858;-63
2023/04/29 07:48:25;;;;;;;;;;;;;;;;;;4976805;28;92840;-63
2023/04/29 07:50:51;;;;;;;;;;;;;;;;;;4976327;28;92253;-63
2023/04/29 07:53:17;;;;;;;;;;;;;;;;;;4980947;28;92977;-63
2023/04/29 07:55:42;;;;;;;;;;;;;;;;;;4977523;28;93037;-63
2023/04/29 07:58:07;;;;;;;;;;;;;;;;;;4978189;28;93057;-62
2023/04/29 08:00:33;;;;;;;;;;;;;;;;;;4981531;28;92700;-64
2023/04/29 08:02:58;;;;;;;;;;;;;;;;;;4980059;28;93884;-68
2023/04/29 08:05:25;;;;;;;;;;;;;;;;;;4979293;28;93252;-64
2023/04/29 08:07:50;;;;;;;;;;;;;;;;;;4971268;28;94204;-69
2023/04/29 08:10:16;;;;;;;;;;;;;;;;;;4981737;28;92815;-64
2023/04/29 08:12:44;;;;;;;;;;;;;;;;;;4980788;28;93604;-64
2023/04/29 08:15:09;;;;;;;;;;;;;;;;;;4979170;28;93546;-76
2023/04/29 08:17:34;;;;;;;;;;;;;;;;;;4980390;28;92942;-62
2023/04/29 08:19:59;;;;;;;;;;;;;;;;;;4980730;28;92565;-66
2023/04/29 08:22:25;;;;;;;;;;;;;;;;;;4982134;28;93573;-59
2023/04/29 08:24:50;;;;;;;;;;;;;;;;;;4978459;28;93343;-62
2023/04/29 08:27:16;;;;;;;;;;;;;;;;;;4977479;28;93941;-62
2023/04/29 08:29:41;;;;;;;;;;;;;;;;;;4979871;28;93143;-60
2023/04/29 08:32:07;;;;;;;;;;;;;;;;;;4976060;28;93563;-60
2023/04/29 08:34:32;;;;;;;;;;;;;;;;;;4974426;28;92883;-60
2023/04/29 08:36:58;;;;;;;;;;;;;;;;;;4974609;28;92846;-59
2023/04/29 08:39:24;;;;;;;;;;;;;;;;;;4977007;28;92739;-64
2023/04/29 08:41:50;;;;;;;;;;;;;;;;;;4974981;28;94034;-61
2023/04/29 08:44:16;;;;;;;;;;;;;;;;;;4982482;28;91527;-63
2023/04/29 08:46:42;;;;;;;;;;;;;;;;;;4977790;28;93608;-60
2023/04/29 08:49:08;;;;;;;;;;;;;;;;;;4972651;28;93308;-63
2023/04/29 08:51:34;;;;;;;;;;;;;;;;;;4976221;28;94263;-61
2023/04/29 08:53:59;;;;;;;;;;;;;;;;;;4975488;28;94096;-60
2023/04/29 08:56:26;;;;;;;;;;;;;;;;;;4976948;28;94219;-59
2023/04/29 08:58:56;;;;;;;;;;;;;;;;;;4981836;28;93650;-61
2023/04/29 09:01:22;;;;;;;;;;;;;;;;;;4980463;28;93852;-63
2023/04/29 09:04:26;;;;;;;;;;;;;;;;;;4976842;28;92352;-59
2023/04/29 09:06:54;;;;;;;;;;;;;;;;;;4915356;28;93853;-59
2023/04/29 09:09:19;;;;;;;;;;;;;;;;;;4915785;28;92118;-58
2023/04/29 09:11:46;;;;;;;;;;;;;;;;;;4936566;28;92791;-60
2023/04/29 09:14:12;;;;;;;;;;;;;;;;;;4975996;28;92627;-68
2023/04/29 09:16:37;;;;;;;;;;;;;;;;;;4979253;28;93314;-65
2023/04/29 09:19:02;;;;;;;;;;;;;;;;;;4975081;28;93469;-61
2023/04/29 09:21:31;;;;;;;;;;;;;;;;;;4974541;28;92792;-62
2023/04/29 09:23:57;;;;;;;;;;;;;;;;;;4974911;28;93864;-61
2023/04/29 09:26:23;;;;;;;;;;;;;;;;;;4982723;28;92739;-63
2023/04/29 09:29:08;;;;;;;;;;;;;;;;;;4975012;28;92771;-58
2023/04/29 09:31:33;;;;;;;;;;;;;;;;;;4980932;28;93556;-62
2023/04/29 09:33:58;;;;;;;;;;;;;;;;;;4980185;28;91937;-60
2023/04/29 09:36:38;;;;;;;;;;;;;;;;;;4978235;28;92323;-64
2023/04/29 09:39:10;;;;;;;;;;;;;;;;;;4976985;28;92524;-59
2023/04/29 09:41:39;;;;;;;;;;;;;;;;;;4969860;28;95167;-58
2023/04/29 09:44:05;;;;;;;;;;;;;;;;;;4976586;28;93023;-63
2023/04/29 09:46:32;;;;;;;;;;;;;;;;;;4977912;28;93839;-61
2023/04/29 09:48:57;;;;;;;;;;;;;;;;;;4974965;28;93475;-60
2023/04/29 09:51:22;;;;;;;;;;;;;;;;;;4971577;28;93324;-60
2023/04/29 09:53:48;;;;;;;;;;;;;;;;;;4974560;28;92833;-61
2023/04/29 09:56:13;;;;;;;;;;;;;;;;;;4976243;28;92632;-59
2023/04/29 09:58:39;;;;;;;;;;;;;;;;;;4972572;28;92780;-59
2023/04/29 10:01:04;;;;;;;;;;;;;;;;;;4972777;28;93816;-67
2023/04/29 10:03:34;;;;;;;;;;;;;;;;;;4973444;28;92754;-61
2023/04/29 10:06:00;;;;;;;;;;;;;;;;;;4968554;28;94649;-62
2023/04/29 10:08:26;;;;;;;;;;;;;;;;;;4973452;28;93772;-61
2023/04/29 10:11:02;;;;;;;;;;;;;;;;;;5066074;27;82668;-60
2023/04/29 10:13:28;;;;;;;;;;;;;;;;;;5039553;27;89335;-59
2023/04/29 10:16:10;;;;;;;;;;;;;;;;;;5038615;27;89675;-60
2023/04/29 10:18:36;;;;;;;;;;;;;;;;;;5040841;27;89578;-63
2023/04/29 10:21:03;;;;;;;;;;;;;;;;;;5042318;27;89510;-60
2023/04/29 10:23:29;;;;;;;;;;;;;;;;;;5047748;27;89350;-61
2023/04/29 10:25:54;;;;;;;;;;;;;;;;;;5037632;27;89750;-67
2023/04/29 10:28:22;;;;;;;;;;;;;;;;;;5036731;27;91340;-64
2023/04/29 10:30:50;;;;;;;;;;;;;;;;;;5047527;27;89606;-62
2023/04/29 10:33:16;;;;;;;;;;;;;;;;;;5036959;27;90150;-62
2023/04/29 10:35:43;;;;;;;;;;;;;;;;;;5037478;27;89130;-66
2023/04/29 10:38:19;;;;;;;;;;;;;;;;;;5042101;27;89556;-65
2023/04/29 10:40:46;;;;;;;;;;;;;;;;;;5040539;27;90673;-62
2023/04/29 10:43:11;;;;;;;;;;;;;;;;;;5058887;27;90157;-61
2023/04/29 10:45:37;;;;;;;;;;;;;;;;;;5048062;27;89147;-59
2023/04/29 10:48:07;;;;;;;;;;;;;;;;;;5043229;27;90788;-59
2023/04/29 10:50:33;;;;;;;;;;;;;;;;;;5039568;27;90388;-60
2023/04/29 10:53:01;;;;;;;;;;;;;;;;;;5051895;27;89006;-65
2023/04/29 10:55:26;;;;;;;;;;;;;;;;;;5043139;27;90347;-61
2023/04/29 10:57:52;;;;;;;;;;;;;;;;;;5033226;27;89067;-59
2023/04/29 11:00:37;;;;;;;;;;;;;;;;;;5038171;27;90540;-61
2023/04/29 11:03:04;;;;;;;;;;;;;;;;;;5042106;27;90499;-60
2023/04/29 11:05:36;;;;;;;;;;;;;;;;;;5038110;27;89551;-62
2023/04/29 11:08:08;;;;;;;;;;;;;;;;;;5032605;27;92996;-60
2023/04/29 11:10:40;;;;;;;;;;;;;;;;;;5036456;27;91214;-59
2023/04/29 11:13:25;;;;;;;;;;;;;;;;;;5044087;27;89225;-62
2023/04/29 11:15:51;;;;;;;;;;;;;;;;;;5037113;27;89498;-59
2023/04/29 11:18:17;;;;;;;;;;;;;;;;;;5037613;27;89345;-59
2023/04/29 11:21:01;;;;;;;;;;;;;;;;;;5038011;27;89777;-60
2023/04/29 11:23:26;;;;;;;;;;;;;;;;;;5033270;27;91208;-59
2023/04/29 11:25:51;;;;;;;;;;;;;;;;;;5021634;27;89832;-63
2023/04/29 11:28:17;;;;;;;;;;;;;;;;;;5023562;27;89502;-62
2023/04/29 11:30:44;;;;;;;;;;;;;;;;;;5026667;27;89790;-61
2023/04/29 11:33:09;;;;;;;;;;;;;;;;;;5029533;27;90282;-62
2023/04/29 11:35:38;;;;;;;;;;;;;;;;;;5028134;27;90187;-62
2023/04/29 11:38:03;;;;;;;;;;;;;;;;;;5030851;27;90343;-61
2023/04/29 11:40:31;;;;;;;;;;;;;;;;;;5031513;27;89800;-62
2023/04/29 11:42:56;;;;;;;;;;;;;;;;;;5034414;27;89496;-59
2023/04/29 11:45:22;;;;;;;;;;;;;;;;;;5034424;27;89881;-60
2023/04/29 11:47:48;;;;;;;;;;;;;;;;;;5034117;27;89745;-60
2023/04/29 11:50:18;;;;;;;;;;;;;;;;;;5036744;27;89265;-61
2023/04/29 11:52:45;;;;;;;;;;;;;;;;;;5026000;27;90033;-63
2023/04/29 11:55:11;;;;;;;;;;;;;;;;;;5026997;27;89960;-58
2023/04/29 11:57:37;;;;;;;;;;;;;;;;;;5031736;27;90014;-64
2023/04/29 12:00:03;;;;;;;;;;;;;;;;;;5035068;27;89253;-61
2023/04/29 12:02:29;;;;;;;;;;;;;;;;;;5025136;27;90695;-59
2023/04/29 12:04:56;;;;;;;;;;;;;;;;;;5031485;27;89359;-61
2023/04/29 12:07:21;;;;;;;;;;;;;;;;;;5027048;27;89678;-60
2023/04/29 12:09:46;;;;;;;;;;;;;;;;;;5027207;27;89986;-61
2023/04/29 12:12:13;;;;;;;;;;;;;;;;;;5043168;27;89841;-62
2023/04/29 12:14:39;;;;;;;;;;;;;;;;;;5032375;27;89642;-60
2023/04/29 12:17:04;;;;;;;;;;;;;;;;;;5030813;27;90846;-61
2023/04/29 12:19:30;;;;;;;;;;;;;;;;;;5036905;27;89194;-62
2023/04/29 12:21:58;;;;;;;;;;;;;;;;;;5026011;27;89323;-59
2023/04/29 12:24:24;;;;;;;;;;;;;;;;;;5027684;27;89105;-59
2023/04/29 12:26:49;;;;;;;;;;;;;;;;;;5026504;27;91023;-61
2023/04/29 12:29:15;;;;;;;;;;;;;;;;;;5026353;27;90019;-63
2023/04/29 12:31:40;;;;;;;;;;;;;;;;;;5041160;27;89062;-60
2023/04/29 12:34:06;;;;;;;;;;;;;;;;;;5022930;27;89759;-59
2023/04/29 12:36:33;;;;;;;;;;;;;;;;;;5033258;27;90127;-63
2023/04/29 12:38:58;;;;;;;;;;;;;;;;;;5030443;27;91809;-60
2023/04/29 12:41:37;;;;;;;;;;;;;;;;;;5039847;27;89519;-59
2023/04/29 12:44:03;;;;;;;;;;;;;;;;;;5029691;27;89768;-61
2023/04/29 12:46:33;;;;;;;;;;;;;;;;;;5027309;27;90791;-59
2023/04/29 12:49:01;;;;;;;;;;;;;;;;;;5029819;27;90847;-59
2023/04/29 12:51:26;;;;;;;;;;;;;;;;;;5029344;27;89637;-62
2023/04/29 12:53:51;;;;;;;;;;;;;;;;;;5022205;27;89403;-59
2023/04/29 12:56:17;;;;;;;;;;;;;;;;;;5026146;27;89086;-60
2023/04/29 12:58:42;;;;;;;;;;;;;;;;;;5031298;27;89948;-59
2023/04/29 13:01:08;;;;;;;;;;;;;;;;;;5020655;27;90405;-60
2023/04/29 13:03:34;;;;;;;;;;;;;;;;;;5024093;27;90504;-61
2023/04/29 13:06:01;;;;;;;;;;;;;;;;;;5025149;27;89582;-60
2023/04/29 13:08:26;;;;;;;;;;;;;;;;;;5029739;27;89853;-59
2023/04/29 13:10:52;;;;;;;;;;;;;;;;;;5026154;27;89650;-60
2023/04/29 13:13:17;;;;;;;;;;;;;;;;;;5027852;27;90129;-63
2023/04/29 13:15:43;;;;;;;;;;;;;;;;;;5027456;27;90219;-61
2023/04/29 13:18:08;;;;;;;;;;;;;;;;;;5022507;27;89755;-63
2023/04/29 13:20:34;;;;;;;;;;;;;;;;;;5031741;27;89804;-61
2023/04/29 13:22:59;;;;;;;;;;;;;;;;;;5031207;27;90985;-63
2023/04/29 13:25:24;;;;;;;;;;;;;;;;;;5030688;27;89698;-61
2023/04/29 13:27:50;;;;;;;;;;;;;;;;;;5026006;27;90287;-61
2023/04/29 13:30:15;;;;;;;;;;;;;;;;;;5019384;27;89718;-59
2023/04/29 13:32:40;;;;;;;;;;;;;;;;;;5029535;27;89742;-65
2023/04/29 13:35:06;;;;;;;;;;;;;;;;;;5030381;27;89223;-60
2023/04/29 13:37:32;;;;;;;;;;;;;;;;;;5027520;27;89328;-60
2023/04/29 13:39:57;;;;;;;;;;;;;;;;;;5027227;27;90800;-59
2023/04/29 13:42:22;;;;;;;;;;;;;;;;;;5025074;27;90053;-64
2023/04/29 13:44:49;;;;;;;;;;;;;;;;;;5033317;27;91900;-61
2023/04/29 13:47:14;;;;;;;;;;;;;;;;;;5030117;27;90114;-64
2023/04/29 13:49:40;;;;;;;;;;;;;;;;;;5020131;27;89408;-60
2023/04/29 13:52:05;;;;;;;;;;;;;;;;;;5023903;27;90604;-63
2023/04/29 13:54:31;;;;;;;;;;;;;;;;;;5028210;27;89175;-65
2023/04/29 13:56:57;;;;;;;;;;;;;;;;;;5026210;27;89074;-64
2023/04/29 13:59:22;;;;;;;;;;;;;;;;;;5032258;27;89818;-61
2023/04/29 14:01:49;;;;;;;;;;;;;;;;;;5024949;27;89180;-61
2023/04/29 14:04:15;;;;;;;;;;;;;;;;;;5023437;27;89529;-66
2023/04/29 14:06:41;;;;;;;;;;;;;;;;;;5029874;27;89769;-65
2023/04/29 14:09:06;;;;;;;;;;;;;;;;;;5031175;27;90364;-61
2023/04/29 14:11:35;;;;;;;;;;;;;;;;;;5023593;27;89725;-60
2023/04/29 14:14:01;;;;;;;;;;;;;;;;;;5020540;27;90628;-61
2023/04/29 14:16:27;;;;;;;;;;;;;;;;;;5025551;27;89508;-61
2023/04/29 14:18:52;;;;;;;;;;;;;;;;;;5021009;27;90663;-60
2023/04/29 14:21:18;;;;;;;;;;;;;;;;;;5025807;27;90212;-62
2023/04/29 14:23:43;;;;;;;;;;;;;;;;;;5026571;27;89129;-62
2023/04/29 14:26:08;;;;;;;;;;;;;;;;;;5029804;27;89020;-61
2023/04/29 14:28:34;;;;;;;;;;;;;;;;;;5031997;27;90126;-60
2023/04/29 14:31:00;;;;;;;;;;;;;;;;;;5022552;27;90010;-64
2023/04/29 14:33:25;;;;;;;;;;;;;;;;;;5024390;27;89915;-60
2023/04/29 14:35:51;;;;;;;;;;;;;;;;;;5028018;27;89394;-61
2023/04/29 14:38:16;;;;;;;;;;;;;;;;;;5027608;27;90296;-62
2023/04/29 14:40:42;;;;;;;;;;;;;;;;;;5016657;27;89230;-61
2023/04/29 14:43:07;;;;;;;;;;;;;;;;;;5027500;27;89408;-60
2023/04/29 14:45:32;;;;;;;;;;;;;;;;;;5024438;27;89507;-61
2023/04/29 14:47:57;;;;;;;;;;;;;;;;;;5022355;27;89916;-62
2023/04/29 14:50:24;;;;;;;;;;;;;;;;;;5021799;27;90384;-63
2023/04/29 14:52:49;;;;;;;;;;;;;;;;;;5020099;27;89630;-63
2023/04/29 14:55:15;;;;;;;;;;;;;;;;;;5023767;27;89467;-62
2023/04/29 14:57:41;;;;;;;;;;;;;;;;;;5030338;27;90169;-60
2023/04/29 15:00:07;;;;;;;;;;;;;;;;;;5031196;27;90386;-61
2023/04/29 15:02:32;;;;;;;;;;;;;;;;;;5024194;27;89860;-61
2023/04/29 15:04:58;;;;;;;;;;;;;;;;;;5030337;27;90721;-59
2023/04/29 15:07:23;;;;;;;;;;;;;;;;;;5033335;27;89742;-60
2023/04/29 15:09:49;;;;;;;;;;;;;;;;;;5022734;27;89169;-60
2023/04/29 15:12:16;;;;;;;;;;;;;;;;;;5040658;27;90071;-62
2023/04/29 15:14:41;;;;;;;;;;;;;;;;;;5035320;27;89694;-62
2023/04/29 15:17:07;;;;;;;;;;;;;;;;;;5030844;27;91078;-64
2023/04/29 15:19:32;;;;;;;;;;;;;;;;;;5027393;27;90270;-62
2023/04/29 15:21:57;;;;;;;;;;;;;;;;;;5029115;27;89842;-60
2023/04/29 15:24:22;;;;;;;;;;;;;;;;;;5025428;27;91019;-64
2023/04/29 15:26:48;;;;;;;;;;;;;;;;;;5032324;27;89609;-61
2023/04/29 15:29:13;;;;;;;;;;;;;;;;;;5026771;27;89106;-62
2023/04/29 15:31:38;;;;;;;;;;;;;;;;;;5037022;27;89908;-62
2023/04/29 15:34:04;;;;;;;;;;;;;;;;;;5030786;27;89283;-61
2023/04/29 15:36:31;;;;;;;;;;;;;;;;;;5033569;27;90247;-62
2023/04/29 15:38:57;;;;;;;;;;;;;;;;;;5021611;27;90312;-60
2023/04/29 15:41:24;;;;;;;;;;;;;;;;;;5024161;27;89814;-60
2023/04/29 15:43:49;;;;;;;;;;;;;;;;;;5024593;27;90837;-63
2023/04/29 15:46:15;;;;;;;;;;;;;;;;;;5029916;27;89213;-65
2023/04/29 15:48:40;;;;;;;;;;;;;;;;;;5024985;27;91400;-62
2023/04/29 15:51:05;;;;;;;;;;;;;;;;;;5025215;27;89481;-63
2023/04/29 15:53:30;;;;;;;;;;;;;;;;;;5019559;27;89526;-64
2023/04/29 15:55:56;;;;;;;;;;;;;;;;;;5029416;27;90293;-62
2023/04/29 15:58:21;;;;;;;;;;;;;;;;;;5026665;27;90163;-62
2023/04/29 16:00:46;;;;;;;;;;;;;;;;;;5020632;27;89831;-62
2023/04/29 16:03:11;;;;;;;;;;;;;;;;;;5023725;27;90585;-62
2023/04/29 16:05:37;;;;;;;;;;;;;;;;;;5021625;27;89412;-60
2023/04/29 16:08:03;;;;;;;;;;;;;;;;;;5022413;27;89978;-61
2023/04/29 16:10:28;;;;;;;;;;;;;;;;;;5024510;27;91103;-61
2023/04/29 16:12:53;;;;;;;;;;;;;;;;;;5020998;27;89355;-60
2023/04/29 16:15:18;;;;;;;;;;;;;;;;;;5022478;27;89124;-62
2023/04/29 16:17:44;;;;;;;;;;;;;;;;;;5028249;27;89706;-62
2023/04/29 16:20:09;;;;;;;;;;;;;;;;;;5025173;27;90719;-61
2023/04/29 16:22:35;;;;;;;;;;;;;;;;;;5023761;27;89727;-63
2023/04/29 16:25:00;;;;;;;;;;;;;;;;;;5023263;27;89940;-63
2023/04/29 16:27:27;;;;;;;;;;;;;;;;;;5029265;27;89264;-60
2023/04/29 16:29:52;;;;;;;;;;;;;;;;;;5026932;27;89664;-63
2023/04/29 16:32:18;;;;;;;;;;;;;;;;;;5021986;27;89074;-63
2023/04/29 16:34:43;;;;;;;;;;;;;;;;;;5030004;27;90554;-61
2023/04/29 16:37:11;;;;;;;;;;;;;;;;;;5032130;27;89729;-61
2023/04/29 16:39:36;;;;;;;;;;;;;;;;;;5029374;27;90274;-61